Terminal Aerodrome Forecast
Issued by NWS Sioux Falls, SD

Home | Current Version | Previous Version | Text Only | Print | Product List | Glossary On
Versions: 1 2 3 4 5 6 7 8 9 10 11 12 13 14
000
FTUS43 KFSD 200500
TAFFSD
TAF
KFSD 200538Z 2006/2106 VRB03KT P6SM SCT250
     FM201100 11009KT P6SM BKN060 OVC100
     FM201600 12013G18KT P6SM SCT070 BKN150
     FM210100 15011KT P6SM SCT040 OVC080
      TEMPO 2103/2106 6SM TSRA BKN040CB=

USA.gov is the U.S. government's official web portal to all federal, state and local government web resources and services.